Time;durP1;ratioP1;P1;durP2;ratioP2;P2;SDS_P1;SDS_P2;PMS_P1;PMS_P2;Temp;Humidity;BMP_temperature;BMP_pressure;BME280_temperature;BME280_humidity;BME280_pressure;Samples;Min_cycle;Max_cycle;Signal;HPM_P1;HPM_P2
2022/07/18 00:01:17;;;;;;;3.60;2.50;;;;;;;19.95;44.12;102363.00;4988112;28;124964;-64
2022/07/18 00:03:44;;;;;;;4.90;2.70;;;;;;;19.91;44.02;102355.19;4989756;28;123998;-64
2022/07/18 00:06:11;;;;;;;4.43;3.03;;;;;;;19.86;44.37;102352.78;4972887;28;114047;-64
2022/07/18 00:08:38;;;;;;;5.00;2.78;;;;;;;19.82;44.43;102359.31;4977481;28;113546;-64
2022/07/18 00:11:05;;;;;;;5.28;3.03;;;;;;;19.81;44.53;102360.25;4987708;28;125414;-64
2022/07/18 00:13:32;;;;;;;4.93;2.78;;;;;;;19.79;44.51;102356.81;4987428;28;124224;-64
2022/07/18 00:16:00;;;;;;;5.68;2.72;;;;;;;19.77;44.36;102354.19;4989143;28;115547;-64
2022/07/18 00:18:27;;;;;;;5.32;3.00;;;;;;;19.74;44.56;102353.50;4986671;28;114936;-64
2022/07/18 00:20:55;;;;;;;5.78;2.83;;;;;;;19.70;44.75;102346.56;4987834;28;124819;-64
2022/07/18 00:23:22;;;;;;;5.68;2.75;;;;;;;19.67;44.80;102346.75;4971731;28;122862;-64
2022/07/18 00:25:49;;;;;;;4.05;3.00;;;;;;;19.64;44.77;102348.66;4970286;28;114065;-64
2022/07/18 00:28:16;;;;;;;5.07;2.53;;;;;;;19.60;44.81;102355.16;4972107;28;113394;-64
2022/07/18 00:30:44;;;;;;;6.38;2.70;;;;;;;19.55;45.06;102341.16;4972268;28;123234;-64
2022/07/18 00:33:11;;;;;;;7.43;3.30;;;;;;;19.51;45.26;102336.91;4957358;28;123846;-64
2022/07/18 00:35:38;;;;;;;4.03;2.90;;;;;;;19.48;44.90;102338.91;4990629;28;115028;-64
2022/07/18 00:38:05;;;;;;;4.55;2.90;;;;;;;19.43;45.10;102328.44;4989268;28;114506;-64
2022/07/18 00:40:33;;;;;;;4.78;2.67;;;;;;;19.39;45.25;102332.25;4989387;28;124051;-64
2022/07/18 00:43:00;;;;;;;4.72;2.78;;;;;;;19.35;45.45;102331.56;4972061;28;123144;-64
2022/07/18 00:45:27;;;;;;;5.47;2.65;;;;;;;19.32;45.40;102322.81;4988810;28;113555;-64
2022/07/18 00:47:54;;;;;;;5.18;3.28;;;;;;;19.28;45.28;102329.34;4985574;28;114294;-64
2022/07/18 00:50:23;;;;;;;5.47;2.70;;;;;;;19.22;45.51;102323.34;4987125;28;124476;-64
2022/07/18 00:52:50;;;;;;;4.43;2.40;;;;;;;19.19;45.39;102331.63;4967556;28;123977;-64
2022/07/18 00:55:18;;;;;;;4.47;2.72;;;;;;;19.15;45.65;102330.03;4970040;28;114865;-64
2022/07/18 00:57:45;;;;;;;5.20;2.80;;;;;;;19.10;45.90;102332.13;4971514;28;113024;-64
2022/07/18 01:02:59;;;;;;;5.15;3.10;;;;;;;19.01;45.90;102321.91;4982168;28;123490;-65
2022/07/18 01:05:27;;;;;;;5.57;2.90;;;;;;;18.96;46.27;102321.31;4986916;28;115896;-65
2022/07/18 01:07:54;;;;;;;6.63;3.40;;;;;;;18.94;46.52;102317.84;4987885;28;115425;-65
2022/07/18 01:10:22;;;;;;;5.00;2.90;;;;;;;18.90;46.32;102319.84;4989183;28;124389;-65
2022/07/18 01:12:49;;;;;;;7.10;3.65;;;;;;;18.88;46.47;102315.53;4985516;28;124214;-64
2022/07/18 01:15:16;;;;;;;7.82;3.10;;;;;;;18.86;46.28;102318.28;4982961;28;114442;-64
2022/07/18 01:17:43;;;;;;;6.00;3.22;;;;;;;18.82;46.15;102317.59;4986820;28;113909;-63
2022/07/18 01:20:11;;;;;;;5.07;2.67;;;;;;;18.79;46.37;102323.09;4984113;28;123864;-63
2022/07/18 01:22:41;;;;;;;6.82;3.40;;;;;;;18.76;46.43;102322.38;4984740;28;123960;-64
2022/07/18 01:25:10;;;;;;;6.25;3.20;;;;;;;18.73;46.51;102323.44;4987361;28;114428;-63
2022/07/18 01:27:38;;;;;;;5.57;3.50;;;;;;;18.71;46.58;102321.81;4987142;28;114084;-64
2022/07/18 01:30:06;;;;;;;5.35;3.03;;;;;;;18.68;46.52;102321.03;4986150;28;124771;-64
2022/07/18 01:32:33;;;;;;;5.55;2.97;;;;;;;18.64;46.36;102313.22;4986977;28;124273;-64
2022/07/18 01:35:00;;;;;;;6.20;2.78;;;;;;;18.59;46.59;102315.28;4988363;28;114299;-64
2022/07/18 01:37:27;;;;;;;6.00;3.20;;;;;;;18.55;46.69;102311.03;4969304;28;113814;-64
2022/07/18 01:39:55;;;;;;;5.15;3.10;;;;;;;18.53;46.70;102310.25;4988021;28;123806;-63
2022/07/18 01:42:22;;;;;;;5.80;3.30;;;;;;;18.49;46.92;102310.41;4989378;28;124360;-63
2022/07/18 01:44:49;;;;;;;6.45;3.53;;;;;;;18.44;47.01;102307.16;4984921;28;114254;-63
2022/07/18 01:47:16;;;;;;;6.00;3.28;;;;;;;18.43;47.29;102305.41;4988022;28;114875;-64
2022/07/18 01:49:44;;;;;;;6.53;3.17;;;;;;;18.39;47.18;102302.97;4989136;28;124907;-64
2022/07/18 01:52:11;;;;;;;6.93;3.45;;;;;;;18.37;47.64;102299.50;4975468;28;122943;-64
2022/07/18 01:54:38;;;;;;;9.05;3.33;;;;;;;18.35;47.67;102296.06;4992167;28;115571;-64
2022/07/18 01:57:06;;;;;;;6.55;3.38;;;;;;;18.33;47.60;102293.44;4959159;28;113866;-64
2022/07/18 01:59:34;;;;;;;4.68;3.30;;;;;;;18.32;47.63;102296.22;4990289;28;124319;-64
2022/07/18 02:02:03;;;;;;;4.78;3.33;;;;;;;18.27;47.54;102293.75;4975282;28;123081;-64
2022/07/18 02:07:21;;;;;;;6.38;3.63;;;;;;;18.22;47.63;102301.22;4989371;28;114058;-64
2022/07/18 02:09:49;;;;;;;10.10;3.40;;;;;;;18.18;47.56;102305.00;4987564;28;123795;-64
2022/07/18 02:12:16;;;;;;;7.10;3.17;;;;;;;18.12;47.76;102311.56;4973515;28;124222;-63
2022/07/18 02:14:43;;;;;;;7.63;3.65;;;;;;;18.08;47.76;102304.63;4991343;28;115156;-63
2022/07/18 02:17:10;;;;;;;5.03;3.30;;;;;;;18.05;47.78;102308.34;4974725;28;113007;-63
2022/07/18 02:19:38;;;;;;;7.28;3.13;;;;;;;18.02;47.74;102308.50;4990671;28;124724;-63
2022/07/18 02:22:05;;;;;;;7.40;3.17;;;;;;;18.00;47.74;102296.97;4986790;28;124666;-63
2022/07/18 02:24:32;;;;;;;4.63;2.90;;;;;;;17.96;47.75;102292.75;4963953;28;113861;-63
2022/07/18 02:27:00;;;;;;;6.05;3.45;;;;;;;17.93;47.92;102290.22;4960242;28;114184;-63
2022/07/18 02:29:27;;;;;;;5.30;2.95;;;;;;;17.92;48.15;102279.59;4973505;28;123341;-63
2022/07/18 02:31:54;;;;;;;6.32;3.60;;;;;;;17.91;48.19;102276.03;4972937;28;122818;-63
2022/07/18 02:34:22;;;;;;;8.50;3.35;;;;;;;17.88;48.09;102277.06;4988996;28;114463;-65
2022/07/18 02:36:50;;;;;;;4.85;2.97;;;;;;;17.87;48.28;102277.13;4993131;28;113066;-65
2022/07/18 02:39:17;;;;;;;7.32;3.20;;;;;;;17.86;48.18;102272.75;4989066;28;124488;-65
2022/07/18 02:41:45;;;;;;;7.25;3.50;;;;;;;17.84;48.71;102267.47;4990948;28;124489;-65
2022/07/18 02:44:12;;;;;;;6.75;3.83;;;;;;;17.83;48.66;102268.34;4990805;28;115703;-65
2022/07/18 02:46:40;;;;;;;5.00;3.30;;;;;;;17.81;48.65;102278.28;4987275;28;115431;-64
2022/07/18 02:49:07;;;;;;;8.73;4.00;;;;;;;17.78;48.76;102286.53;4968114;28;124138;-65
2022/07/18 02:51:34;;;;;;;8.10;3.28;;;;;;;17.76;48.80;102287.53;4989497;28;123549;-65
2022/07/18 02:54:02;;;;;;;6.18;3.30;;;;;;;17.73;48.79;102277.00;4989495;28;114775;-65
2022/07/18 02:56:29;;;;;;;5.38;3.47;;;;;;;17.68;49.09;102280.75;4991245;28;114580;-65
2022/07/18 02:58:56;;;;;;;6.47;3.67;;;;;;;17.66;49.19;102271.94;4987306;28;123827;-65
2022/07/18 03:01:23;;;;;;;6.07;3.53;;;;;;;17.64;49.00;102279.19;4992132;28;124898;-65
2022/07/18 03:03:51;;;;;;;5.30;3.35;;;;;;;17.63;49.27;102266.75;4992341;28;114244;-65
2022/07/18 03:06:18;;;;;;;9.68;4.00;;;;;;;17.63;49.23;102272.09;4989667;28;114523;-64
2022/07/18 03:08:45;;;;;;;9.15;3.97;;;;;;;17.62;49.26;102259.63;4988729;28;124059;-64
2022/07/18 03:11:12;;;;;;;6.97;3.67;;;;;;;17.60;49.16;102261.53;4972721;28;124820;-64
2022/07/18 03:13:39;;;;;;;6.20;3.58;;;;;;;17.60;49.09;102266.03;4974067;28;113657;-64
2022/07/18 03:16:07;;;;;;;6.88;3.45;;;;;;;17.58;49.14;102263.44;4987789;28;114039;-64
2022/07/18 03:18:34;;;;;;;6.40;3.40;;;;;;;17.57;49.20;102261.69;4991131;28;123973;-65
2022/07/18 03:21:01;;;;;;;7.35;3.90;;;;;;;17.57;49.41;102260.81;4985855;28;124009;-64
2022/07/18 03:23:28;;;;;;;6.32;3.60;;;;;;;17.56;49.27;102259.97;4988557;28;114470;-65
2022/07/18 03:25:55;;;;;;;6.57;3.40;;;;;;;17.56;49.38;102262.66;4971730;28;114532;-64
2022/07/18 03:28:22;;;;;;;6.88;3.53;;;;;;;17.55;49.54;102263.56;4976334;28;124127;-64
2022/07/18 03:30:50;;;;;;;8.82;3.55;;;;;;;17.55;49.50;102263.56;4971919;28;122090;-64
2022/07/18 03:33:17;;;;;;;5.25;3.05;;;;;;;17.53;49.40;102254.75;4985847;28;115926;-65
2022/07/18 03:35:44;;;;;;;6.35;3.42;;;;;;;17.53;49.39;102249.41;4970136;28;114488;-64
2022/07/18 03:38:11;;;;;;;4.88;3.35;;;;;;;17.52;49.42;102247.69;4986739;28;124061;-64
2022/07/18 03:40:38;;;;;;;8.45;3.30;;;;;;;17.51;49.32;102245.94;4988274;28;124045;-65
2022/07/18 03:43:05;;;;;;;7.18;3.78;;;;;;;17.50;49.45;102246.91;4986304;28;114060;-65
2022/07/18 03:45:33;;;;;;;8.93;3.67;;;;;;;17.49;49.69;102247.84;4987506;28;114315;-65
2022/07/18 03:48:00;;;;;;;6.32;3.72;;;;;;;17.48;49.69;102243.44;4986883;28;124590;-67
2022/07/18 03:50:28;;;;;;;8.20;3.33;;;;;;;17.47;49.83;102245.22;4972803;28;122777;-65
2022/07/18 03:52:55;;;;;;;10.18;3.60;;;;;;;17.48;49.61;102246.13;4959442;28;114851;-64
2022/07/18 03:55:23;;;;;;;9.13;3.60;;;;;;;17.47;49.72;102241.69;4990930;28;114002;-65
2022/07/18 03:57:50;;;;;;;7.07;3.67;;;;;;;17.46;49.69;102242.63;4969437;28;123544;-65
2022/07/18 04:00:17;;;;;;;10.18;3.55;;;;;;;17.47;49.84;102239.00;4990365;28;124354;-64
2022/07/18 04:02:46;;;;;;;8.32;3.22;;;;;;;17.46;49.83;102242.63;4985931;28;114431;-64
2022/07/18 04:05:15;;;;;;;9.15;3.33;;;;;;;17.46;50.17;102239.94;4983811;28;114226;-64
2022/07/18 04:07:42;;;;;;;10.65;3.92;;;;;;;17.45;50.19;102240.91;4969971;28;124120;-64
2022/07/18 04:10:10;;;;;;;9.77;4.15;;;;;;;17.46;50.29;102231.91;4989965;28;124374;-64
2022/07/18 04:12:48;;;;;;;5.78;3.70;;;;;;;17.48;50.62;102230.03;4990419;28;114277;-64
2022/07/18 04:15:16;;;;;;;5.90;3.83;;;;;;;17.51;50.67;102229.88;4984314;28;114583;-64
2022/07/18 04:17:44;;;;;;;7.10;4.00;;;;;;;17.54;50.60;102235.06;4988892;28;124665;-64
2022/07/18 04:20:12;;;;;;;7.90;3.92;;;;;;;17.59;50.76;102233.00;4969219;28;123486;-64
2022/07/18 04:22:52;;;;;;;7.47;4.05;;;;;;;17.63;50.80;102234.59;4987995;28;115365;-64
2022/07/18 04:25:22;;;;;;;6.95;3.90;;;;;;;17.69;50.64;102233.41;4962389;28;114283;-65
2022/07/18 04:27:50;;;;;;;5.63;3.58;;;;;;;17.74;50.61;102236.69;4984529;28;124141;-64
2022/07/18 04:30:20;;;;;;;12.10;3.53;;;;;;;17.77;50.65;102236.53;4959087;28;122711;-65
2022/07/18 04:32:48;;;;;;;8.23;3.97;;;;;;;17.81;50.73;102237.25;4988563;28;115046;-64
2022/07/18 04:35:21;;;;;;;7.05;3.53;;;;;;;17.83;50.56;102230.84;4987836;28;114543;-65
2022/07/18 04:37:49;;;;;;;9.45;4.00;;;;;;;17.85;50.46;102228.13;4986639;28;123933;-65
2022/07/18 04:40:17;;;;;;;8.10;3.97;;;;;;;17.86;50.51;102224.50;4990013;28;125003;-64
2022/07/18 04:42:44;;;;;;;9.23;4.15;;;;;;;17.89;50.30;102224.31;4982754;28;114309;-65
2022/07/18 04:45:12;;;;;;;11.18;4.13;;;;;;;17.90;50.69;102220.69;4987127;28;113880;-65
2022/07/18 04:47:39;;;;;;;6.38;3.90;;;;;;;17.93;50.63;102217.84;4971412;28;123147;-65
2022/07/18 04:50:07;;;;;;;9.00;4.03;;;;;;;17.99;50.74;102213.94;4989190;28;124880;-65
2022/07/18 04:52:39;;;;;;;8.88;4.15;;;;;;;18.04;50.79;102207.38;4988025;28;114216;-65
2022/07/18 04:55:08;;;;;;;9.50;4.30;;;;;;;18.16;51.13;102210.34;4988849;28;114333;-65
2022/07/18 04:57:36;;;;;;;10.43;4.38;;;;;;;18.29;51.34;102212.28;4984946;28;123836;-65
2022/07/18 05:00:13;;;;;;;8.77;4.20;;;;;;;18.45;51.21;102220.31;4967636;28;124373;-64
2022/07/18 05:02:41;;;;;;;7.50;4.45;;;;;;;18.64;50.97;102216.59;4990404;28;114314;-65
2022/07/18 05:05:10;;;;;;;11.18;4.65;;;;;;;18.81;50.82;102219.19;4972367;28;112857;-65
2022/07/18 05:07:39;;;;;;;8.23;3.80;;;;;;;18.97;50.54;102218.34;4985521;28;123825;-65
2022/07/18 05:10:08;;;;;;;9.60;4.25;;;;;;;19.08;50.26;102220.38;4971767;28;122909;-64
2022/07/18 05:12:36;;;;;;;7.90;3.90;;;;;;;19.16;49.99;102224.34;4987137;28;115173;-65
2022/07/18 05:15:10;;;;;;;12.27;4.85;;;;;;;19.23;50.16;102217.66;4989955;28;115234;-64
2022/07/18 05:17:37;;;;;;;8.20;4.70;;;;;;;19.31;49.93;102219.00;4985056;28;124034;-65
2022/07/18 05:20:08;;;;;;;7.07;4.50;;;;;;;19.40;49.74;102218.44;4988676;28;123831;-65
2022/07/18 05:22:36;;;;;;;6.90;4.18;;;;;;;19.48;49.61;102221.53;4956327;28;115545;-65
2022/07/18 05:25:05;;;;;;;9.02;4.35;;;;;;;19.56;49.51;102215.69;4984283;28;114373;-65
2022/07/18 05:27:33;;;;;;;8.77;4.50;;;;;;;19.62;49.31;102205.41;4984517;28;124744;-65
2022/07/18 05:30:01;;;;;;;9.98;4.70;;;;;;;19.68;49.22;102208.69;4988581;28;125115;-65
2022/07/18 05:32:28;;;;;;;11.35;4.45;;;;;;;19.73;49.26;102217.38;4971730;28;113167;-65
2022/07/18 05:34:55;;;;;;;8.88;4.55;;;;;;;19.79;49.29;102214.31;4971199;28;113480;-64
2022/07/18 05:37:23;;;;;;;8.95;4.80;;;;;;;19.84;49.22;102214.91;4986210;28;124173;-65
2022/07/18 05:39:51;;;;;;;7.85;4.75;;;;;;;19.92;49.10;102207.19;4969782;28;125319;-65
2022/07/18 05:42:18;;;;;;;8.13;5.07;;;;;;;20.01;49.24;102212.00;4971838;28;113147;-65
2022/07/18 05:45:06;;;;;;;13.25;4.53;;;;;;;20.10;48.98;102204.31;4987598;28;114410;-65
2022/07/18 05:47:34;;;;;;;7.90;4.80;;;;;;;20.19;49.20;102199.22;4986558;28;124956;-65
2022/07/18 05:50:01;;;;;;;7.10;4.68;;;;;;;20.30;48.91;102211.97;4955063;28;122737;-65
2022/07/18 05:52:29;;;;;;;8.35;4.93;;;;;;;20.38;48.93;102208.78;4974432;28;113313;-65
2022/07/18 05:54:56;;;;;;;10.63;5.10;;;;;;;20.48;48.77;102209.06;4987148;28;113911;-65
2022/07/18 05:57:23;;;;;;;7.75;4.68;;;;;;;20.58;48.76;102210.19;4986653;28;124065;-65
2022/07/18 05:59:50;;;;;;;8.02;4.40;;;;;;;20.68;48.53;102208.66;4986663;28;123697;-65
2022/07/18 06:02:17;;;;;;;7.93;4.75;;;;;;;20.77;48.46;102205.31;4970234;28;114254;-65
2022/07/18 06:04:45;;;;;;;7.63;5.07;;;;;;;20.89;48.32;102214.44;4971643;28;113947;-65
2022/07/18 06:07:32;;;;;;;8.90;5.13;;;;;;;21.03;48.18;102216.19;4985271;28;124069;-65
2022/07/18 06:09:59;;;;;;;8.73;4.85;;;;;;;21.15;48.28;102218.06;4969963;28;123073;-66
2022/07/18 06:12:30;;;;;;;9.80;4.93;;;;;;;21.30;47.99;102215.28;4987044;28;114197;-66
2022/07/18 06:14:59;;;;;;;10.48;5.05;;;;;;;21.43;48.17;102210.75;4984255;28;113908;-66
2022/07/18 06:17:28;;;;;;;11.75;4.60;;;;;;;21.57;48.02;102215.25;4985934;28;123991;-65
2022/07/18 06:19:56;;;;;;;9.82;5.18;;;;;;;21.71;47.97;102207.03;4984906;28;124780;-64
2022/07/18 06:22:24;;;;;;;9.23;4.35;;;;;;;21.83;47.68;102210.72;4987020;28;114297;-65
2022/07/18 06:24:52;;;;;;;7.70;4.20;;;;;;;21.97;47.38;102202.47;4986541;28;113897;-65
2022/07/18 06:27:19;;;;;;;7.43;4.10;;;;;;;22.09;47.23;102205.25;4985987;28;124026;-65
2022/07/18 06:29:46;;;;;;;7.82;3.85;;;;;;;22.23;46.57;102207.84;4952820;28;123883;-65
2022/07/18 06:32:13;;;;;;;9.95;4.15;;;;;;;22.34;46.65;102199.84;4985224;28;114411;-65
2022/07/18 06:34:40;;;;;;;7.45;3.90;;;;;;;22.47;46.36;102198.91;4987130;28;113994;-65
2022/07/18 06:37:08;;;;;;;7.15;3.75;;;;;;;22.62;45.97;102195.09;4989286;28;123997;-65
2022/07/18 06:39:35;;;;;;;11.75;4.10;;;;;;;22.78;45.85;102185.84;4990273;28;123568;-65
2022/07/18 06:42:02;;;;;;;9.00;3.65;;;;;;;22.95;45.43;102193.53;4990589;28;114350;-65
2022/07/18 06:44:30;;;;;;;12.13;4.07;;;;;;;23.11;45.41;102177.91;4989056;28;114135;-65
2022/07/18 06:46:59;;;;;;;6.93;3.70;;;;;;;23.31;45.35;102180.88;4989869;28;124068;-65
2022/07/18 06:49:27;;;;;;;6.93;3.80;;;;;;;23.49;44.94;102182.16;4972224;28;124494;-65
2022/07/18 06:51:54;;;;;;;6.20;3.85;;;;;;;23.69;44.87;102177.84;4989702;28;115249;-65
2022/07/18 06:54:30;;;;;;;8.05;3.72;;;;;;;23.92;44.84;102172.47;4992069;28;114978;-65
2022/07/18 06:56:59;;;;;;;6.88;3.67;;;;;;;24.13;44.65;102169.88;4974944;28;124081;-65
2022/07/18 06:59:26;;;;;;;7.10;3.17;;;;;;;24.34;43.95;102171.81;4989657;28;124262;-66
2022/07/18 07:01:53;;;;;;;9.02;3.85;;;;;;;24.53;43.68;102177.44;4990131;28;114107;-65
2022/07/18 07:04:20;;;;;;;5.88;3.22;;;;;;;24.75;43.60;102187.34;4989966;28;114478;-65
2022/07/18 07:06:47;;;;;;;6.15;3.45;;;;;;;24.97;43.29;102186.38;4989743;28;127286;-65
2022/07/18 07:09:15;;;;;;;6.60;3.33;;;;;;;25.18;42.61;102189.09;4973909;28;123529;-65
2022/07/18 07:11:42;;;;;;;8.15;3.80;;;;;;;25.37;41.99;102183.00;4989617;28;117417;-65
2022/07/18 07:14:09;;;;;;;4.93;2.85;;;;;;;25.57;41.70;102177.66;4990539;28;113708;-65
2022/07/18 07:16:36;;;;;;;10.00;3.63;;;;;;;25.79;42.02;102182.91;4988783;28;124632;-65
2022/07/18 07:19:04;;;;;;;8.98;3.40;;;;;;;25.96;41.10;102177.88;4989203;28;123758;-65
2022/07/18 07:21:31;;;;;;;8.30;3.35;;;;;;;26.14;40.84;102176.19;4989949;28;114194;-65
2022/07/18 07:23:58;;;;;;;6.43;3.25;;;;;;;26.32;40.67;102178.25;4992410;28;114333;-65
2022/07/18 07:26:25;;;;;;;9.38;3.67;;;;;;;26.49;40.84;102176.72;4988918;28;124504;-65
2022/07/18 07:28:53;;;;;;;5.38;3.55;;;;;;;26.68;41.08;102179.47;4988931;28;124542;-65
2022/07/18 07:31:20;;;;;;;5.03;3.00;;;;;;;26.88;40.57;102180.34;4989503;28;114261;-65
2022/07/18 07:33:47;;;;;;;6.43;3.10;;;;;;;27.06;40.02;102185.06;4991755;28;114548;-65
2022/07/18 07:36:14;;;;;;;8.20;3.38;;;;;;;27.25;39.78;102179.59;4991255;28;124817;-65
2022/07/18 07:38:41;;;;;;;7.22;3.67;;;;;;;27.43;40.38;102178.88;4988322;28;123588;-65
2022/07/18 07:41:09;;;;;;;7.78;3.88;;;;;;;27.62;39.51;102188.84;4980542;28;115731;-65
2022/07/18 07:43:38;;;;;;;6.97;3.70;;;;;;;27.81;38.59;102177.00;4972206;28;114901;-65
2022/07/18 07:46:05;;;;;;;9.50;4.00;;;;;;;27.99;38.16;102169.78;4990162;28;124154;-65
2022/07/18 07:48:33;;;;;;;7.32;3.85;;;;;;;28.17;38.73;102166.25;4987436;28;124117;-65
2022/07/18 07:51:01;;;;;;;6.45;3.40;;;;;;;28.32;38.43;102160.09;4984026;28;114330;-65
2022/07/18 07:53:28;;;;;;;8.93;3.58;;;;;;;28.50;38.31;102151.97;4969877;28;113817;-65
2022/07/18 07:55:55;;;;;;;7.35;3.30;;;;;;;28.68;38.40;102142.94;4989836;28;124053;-65
2022/07/18 07:58:23;;;;;;;7.70;3.72;;;;;;;28.85;37.93;102138.47;4988774;28;123862;-65
2022/07/18 08:00:50;;;;;;;6.53;3.70;;;;;;;29.00;37.93;102136.03;4991818;28;114468;-66
2022/07/18 08:03:17;;;;;;;7.03;4.05;;;;;;;29.12;37.26;102135.63;4973859;28;113255;-65
2022/07/18 08:05:48;;;;;;;5.65;3.72;;;;;;;29.24;36.73;102122.59;4990765;28;123826;-65
2022/07/18 08:08:15;;;;;;;7.03;3.67;;;;;;;29.39;36.74;102124.75;4988666;28;124632;-65
2022/07/18 08:10:44;;;;;;;8.60;3.80;;;;;;;29.53;36.20;102132.31;4991288;28;114429;-65
2022/07/18 08:13:12;;;;;;;8.27;3.92;;;;;;;29.67;36.00;102133.59;4989045;28;114366;-65
2022/07/18 08:15:40;;;;;;;6.80;3.55;;;;;;;29.82;35.81;102136.56;4976509;28;124335;-65
2022/07/18 08:18:07;;;;;;;5.85;4.03;;;;;;;29.94;35.84;102146.19;4970104;28;124651;-65
2022/07/18 08:20:35;;;;;;;7.55;3.42;;;;;;;30.03;35.58;102150.66;4990947;28;114246;-65
2022/07/18 08:23:08;;;;;;;6.53;3.50;;;;;;;30.15;35.31;102153.06;4974035;28;113198;-65
2022/07/18 08:25:37;;;;;;;8.00;2.50;;;;;;;30.28;34.01;102147.97;4984796;28;124086;-65
2022/07/18 08:28:06;;;;;;;9.07;3.28;;;;;;;30.37;33.91;102141.53;4990105;28;123909;-65
2022/07/18 08:30:34;;;;;;;5.97;2.83;;;;;;;30.46;34.24;102150.63;4990280;28;115099;-65
2022/07/18 08:33:01;;;;;;;6.47;2.70;;;;;;;30.60;34.76;102140.88;4989571;28;114831;-65
2022/07/18 08:35:31;;;;;;;4.35;2.25;;;;;;;30.74;34.75;102150.28;4988027;28;124798;-65
2022/07/18 08:37:59;;;;;;;4.18;2.17;;;;;;;30.90;33.75;102157.66;4987752;28;124007;-65
2022/07/18 08:40:27;;;;;;;5.28;2.30;;;;;;;31.03;32.90;102152.53;4973078;28;113257;-65
2022/07/18 08:42:56;;;;;;;4.93;2.03;;;;;;;31.12;31.95;102161.56;4988755;28;113782;-64
2022/07/18 08:45:43;;;;;;;3.35;1.95;;;;;;;31.17;32.06;102160.03;4990785;28;123917;-64
2022/07/18 08:48:15;;;;;;;3.67;2.17;;;;;;;31.22;30.88;102146.69;4987785;28;124489;-65
2022/07/18 08:50:47;;;;;;;3.83;1.52;;;;;;;31.30;31.06;102147.69;4977073;28;114133;-65
2022/07/18 08:53:16;;;;;;;6.43;1.60;;;;;;;31.38;30.99;102151.28;4988666;28;113884;-67
2022/07/18 08:55:45;;;;;;;3.72;1.70;;;;;;;31.48;30.83;102144.78;4968175;28;125255;-65
2022/07/18 08:58:14;;;;;;;3.55;1.55;;;;;;;31.56;30.39;102137.38;4978765;28;124505;-65
2022/07/18 09:01:01;;;;;;;4.38;1.65;;;;;;;31.67;30.40;102138.03;4988550;28;114314;-65
2022/07/18 09:03:29;;;;;;;2.45;1.50;;;;;;;31.75;29.98;102138.00;4988220;28;114178;-65
2022/07/18 09:06:13;;;;;;;3.55;1.83;;;;;;;31.80;30.30;102132.84;4990058;28;124344;-65
2022/07/18 09:08:58;;;;;;;5.03;1.95;;;;;;;31.87;30.12;102128.34;4970109;28;124664;-65
2022/07/18 09:11:26;;;;;;;5.18;2.22;;;;;;;31.95;30.09;102125.56;4971728;28;113295;-65
2022/07/18 09:14:38;;;;;;;4.38;1.70;;;;;;;32.07;30.63;102119.72;4990189;28;113968;-66
2022/07/18 09:17:12;;;;;;;5.13;2.42;;;;;;;32.18;29.18;102130.28;4970254;28;123322;-65
2022/07/18 09:19:56;;;;;;;;;;;;;;;32.18;30.62;102130.28;4971403;28;122983;-65
2022/07/18 09:22:25;;;;;;;11.80;2.53;;;;;;;32.22;29.73;102131.59;4987640;28;115488;-65
2022/07/18 09:24:54;;;;;;;4.88;2.47;;;;;;;32.26;29.76;102135.69;4983266;28;114740;-65
2022/07/18 09:27:27;;;;;;;4.35;2.70;;;;;;;32.31;28.99;102138.75;4990588;28;124537;-65
2022/07/18 09:30:18;;;;;;;3.95;2.40;;;;;;;32.34;29.03;102135.66;4972263;28;123967;-65
2022/07/18 09:33:06;;;;;;;3.65;2.10;;;;;;;32.39;29.39;102138.69;4977838;28;114039;-65
2022/07/18 09:35:52;;;;;;;3.70;2.00;;;;;;;32.46;28.72;102137.97;4987840;28;114042;-65
2022/07/18 09:38:21;;;;;;;3.47;2.03;;;;;;;32.52;28.69;102137.22;4986929;28;124558;-65
2022/07/18 09:40:59;;;;;;;4.30;2.28;;;;;;;32.55;28.54;102137.72;4990337;28;124916;-66
2022/07/18 09:43:27;;;;;;;4.57;2.17;;;;;;;32.64;28.79;102134.94;4987800;28;114376;-65
2022/07/18 09:45:56;;;;;;;3.72;2.28;;;;;;;32.75;28.88;102138.09;4991698;28;96869;-65
2022/07/18 09:48:25;;;;;;;4.15;2.95;;;;;;;32.82;28.39;102137.38;4986427;28;124137;-65
2022/07/18 09:51:06;;;;;;;5.53;2.50;;;;;;;32.88;28.69;102126.47;4970494;28;122978;-65
2022/07/18 09:53:39;;;;;;;4.82;2.88;;;;;;;32.94;28.20;102130.38;4987804;28;114979;-65
2022/07/18 09:56:08;;;;;;;3.55;2.05;;;;;;;32.96;28.19;102134.66;4972273;28;113076;-65
2022/07/18 09:58:40;;;;;;;5.10;1.92;;;;;;;33.03;27.61;102129.25;4986747;28;124249;-65
2022/07/18 10:01:10;;;;;;;3.35;1.95;;;;;;;33.09;28.33;102139.47;4986496;28;124020;-65
2022/07/18 10:03:39;;;;;;;5.90;2.13;;;;;;;33.16;27.65;102140.47;4987493;28;114120;-65
2022/07/18 10:06:07;;;;;;;5.53;2.40;;;;;;;33.24;27.50;102135.94;4989452;28;113826;-65
2022/07/18 10:08:35;;;;;;;5.32;2.85;;;;;;;33.30;27.57;102129.69;4989052;28;124637;-65
2022/07/18 10:11:05;;;;;;;3.95;2.67;;;;;;;33.34;27.56;102131.00;4971501;28;124341;-65
2022/07/18 10:13:34;;;;;;;3.85;1.65;;;;;;;33.40;27.74;102124.78;4990552;28;115690;-65
2022/07/18 10:16:03;;;;;;;3.42;1.70;;;;;;;33.51;27.17;102127.06;4992136;28;114934;-65
2022/07/18 10:18:33;;;;;;;6.38;2.42;;;;;;;33.62;27.05;102124.84;4974589;28;123472;-66
2022/07/18 10:21:12;;;;;;;3.97;2.65;;;;;;;33.75;27.56;102116.81;4993371;28;124349;-66
2022/07/18 10:23:45;;;;;;;7.53;2.45;;;;;;;33.84;27.47;102121.16;4990815;28;114207;-66
2022/07/18 10:26:26;;;;;;;3.75;2.17;;;;;;;33.92;26.59;102112.78;4959577;28;113540;-66
2022/07/18 10:28:58;;;;;;;3.42;2.22;;;;;;;34.02;27.13;102122.63;4991120;28;124151;-66
2022/07/18 10:31:33;;;;;;;3.75;2.55;;;;;;;34.10;26.27;102120.63;4993018;28;124888;-66
2022/07/18 10:34:07;;;;;;;4.45;2.20;;;;;;;34.16;26.47;102118.16;4992567;28;114145;-66
2022/07/18 10:36:39;;;;;;;3.63;1.90;;;;;;;34.17;26.62;102115.25;4991696;28;114553;-66
2022/07/18 10:39:20;;;;;;;3.28;1.80;;;;;;;34.19;26.85;102121.41;4973463;28;123621;-66
2022/07/18 10:41:47;;;;;;;3.92;1.80;;;;;;;34.17;25.77;102119.88;4971899;28;123870;-66
2022/07/18 10:44:23;;;;;;;3.15;1.63;;;;;;;34.13;25.88;102117.50;4990114;28;113983;-66
2022/07/18 10:47:02;;;;;;;3.13;1.80;;;;;;;34.15;26.08;102111.78;4974961;28;112940;-66
2022/07/18 10:49:56;;;;;;;4.25;1.85;;;;;;;34.20;27.04;102114.81;4974038;28;123915;-65
2022/07/18 10:52:27;;;;;;;4.38;1.92;;;;;;;34.30;26.55;102103.50;4974442;28;123036;-66
2022/07/18 10:55:05;;;;;;;3.60;1.80;;;;;;;34.41;26.55;102104.88;4989797;28;114035;-65
2022/07/18 10:57:59;;;;;;;2.67;1.90;;;;;;;34.51;26.44;102099.91;4985961;28;113920;-65
2022/07/18 11:00:37;;;;;;;15.65;2.17;;;;;;;34.58;26.47;102111.81;4989874;28;124118;-66
2022/07/18 11:03:06;;;;;;;5.95;1.77;;;;;;;34.67;25.94;102099.63;4990166;28;123896;-66
2022/07/18 11:05:34;;;;;;;3.08;1.90;;;;;;;34.76;26.22;102107.78;4974453;28;114147;-66
2022/07/18 11:08:01;;;;;;;3.33;1.70;;;;;;;34.82;25.93;102106.97;4989124;28;115320;-66
2022/07/18 11:10:41;;;;;;;2.85;1.75;;;;;;;34.87;26.12;102104.47;4991996;28;124892;-66
2022/07/18 11:13:31;;;;;;;3.33;1.70;;;;;;;34.98;26.10;102095.66;4987950;28;124256;-66
2022/07/18 11:16:10;;;;;;;3.30;1.90;;;;;;;35.10;26.04;102105.03;4972920;28;114622;-66
2022/07/18 11:18:41;;;;;;;4.00;1.80;;;;;;;35.21;25.09;102094.56;4989182;28;114384;-66
2022/07/18 11:21:14;;;;;;;4.60;1.90;;;;;;;35.24;25.48;102091.38;4990933;28;124656;-67
2022/07/18 11:23:42;;;;;;;5.30;1.80;;;;;;;35.27;25.49;102088.22;4989484;28;123897;-66
2022/07/18 11:26:16;;;;;;;4.30;1.88;;;;;;;35.32;25.48;102085.72;4989337;28;114378;-66
2022/07/18 11:28:43;;;;;;;3.72;1.58;;;;;;;35.39;25.67;102081.06;4989616;28;114017;-66
2022/07/18 11:31:12;;;;;;;3.75;1.92;;;;;;;35.46;25.38;102081.13;4990262;28;124148;-66
2022/07/18 11:33:45;;;;;;;4.95;2.05;;;;;;;35.53;25.28;102076.50;4990927;28;123723;-65